A- A+ FrançaisEnglishEspañol中国

Services sur Internet Soldes sur Internet Des idées de cadeaux Météo Météo aéro

La météo à : Autours de vous Tarbes-Lourdes-PyrénéesRennes-St-Jacques Toussus-Le-NobleBasle-Mulhouse

La météo aéronautique pour les pilotes, la préparation du vol avec les METAR (METeorological Aerodrome Report, message d'observation des conditions météorologiques pour l'aviation) et Les TAF (Terminal Aerodrome Forecast : message de prévision à court terme des conditions météorologiques pour l'aviation). Et les autres ressources comme les VAC (Visual Approch Chart) et les NOTAM (Notice To Airman) pour préprer les vols.

Aéroport Berlin Tegel (Allemagne) / OACI EDDT/ IATA TXL

L'altitude de l'aéroport Berlin Tegel est de 37 m = 121 ft. Il est situé à proximité de Berlin (Allemagne). La météo générale à 5 jours est disponible pour Gartenfeld situé à 2.8 km.

METAR de l'aéroport Berlin Tegel - EDDT

EDDT 082120Z 25009KT CAVOK 08/04 Q0997 NOSIG

Décodage du METAR de l'aéroport Berlin Tegel (DE)

METAR émis par EDDT le dimanche 8 décembre 2019 à 21:20 heure TU, il y a 23 minutes.

La visibilité est de supérieure à 10 km = supérieure à 6.2 sm.

La température est de 8°C = 46 °F et le point rosée est de 4°C = 39 °F . Ce qui correspond à 76% d'humidité relative.

Le QNH est de 997 hPa = 29.44 inHg

Vent de 9 kt = 17 km/h, orienté à 250°.

Pas de nuages.

Aucun changement significatif dans les deux heures à venir

TAF de l'aéroport Berlin Tegel - EDDT

EDDT 051700Z 0518/0618 20008KT CAVOK BECMG 0603/0606 21013KT TEMPO 0612/0618 22015G25KT 4000 -RADZ BKN012

EDDT 051700Z 0518/0618 20008KT visibilité supérieure à 10km, aucun nuage à une hauteur inférieure à 5000 ft ou sous l'altitude minimale de secteur et aucun cumulonimbus ou cumulus bourgeonnant, quelle que soit leur altitude devenant 0603/0606 21013KT temporairement 0612/0618 22015G25KT 4000 faible RADZ couverture nuageuse fragmentée à 012

Aéroport à proximité de Berlin Tegel

Météo générale à 5 jours à Gartenfeld (2.8 km)Aéroport Berlin Brandenburg Willy Brandt (26 km)Aéroport Saarmund (31 km)Aéroport Werneuchen (33 km)Aéroport Bienenfarm (38 km)Aéroport Finow (40 km)Aéroport Schonhagen (41 km)

VAC de l'aéroport Berlin Tegel - EDDT

La carte d'approche à vue (VAC Visual Approah Chart) est fournie sans aucune garantie de son actualité. Le pilote est le seul responsable de la vérification de sa validité avant de l'utiliser opérationnellement pour préparer un vol ou l'utiliser lors de sa navigation.

VAC de EDDT

Vue aérienne de l'aéroport Berlin Tegel

NOTAM de l'aéroport Berlin Tegel

Les NOTAM sont fournis sans aucune garantie de leur actualité. Le pilote est le seul responsable de la vérification de sa validité avant de l'utiliser opérationnellement pour préparer un vol ou l'utiliser lors de sa navigation.

Pas de NOTAM

Sources des données